createdAt,value
2018-11-06T00:00:39.402Z,99.99
2018-11-06T00:01:39.390Z,99.98
2018-11-06T00:02:39.379Z,99.99
2018-11-06T00:03:39.376Z,99.99
2018-11-06T00:04:39.369Z,99.99
2018-11-06T00:05:39.355Z,99.99
2018-11-06T00:06:39.344Z,99.99
2018-11-06T00:07:39.341Z,99.99
2018-11-06T00:08:39.334Z,99.99
2018-11-06T00:09:39.320Z,99.99
2018-11-06T00:10:39.314Z,99.99
2018-11-06T00:11:39.308Z,99.99
2018-11-06T00:12:39.298Z,99.99
2018-11-06T00:13:39.288Z,99.99
2018-11-06T00:14:39.288Z,99.99
2018-11-06T00:15:39.275Z,99.98
2018-11-06T00:16:39.265Z,99.99
2018-11-06T00:17:39.261Z,99.99
2018-11-06T00:18:39.245Z,99.99
2018-11-06T00:19:39.248Z,99.98
2018-11-06T00:20:39.230Z,99.60
2018-11-06T00:21:39.225Z,99.99
2018-11-06T00:22:39.227Z,99.99
2018-11-06T00:23:39.209Z,99.99
2018-11-06T00:24:39.205Z,99.99
2018-11-06T00:25:39.194Z,99.99
2018-11-06T00:26:39.181Z,99.99
2018-11-06T00:27:39.174Z,99.99
2018-11-06T00:28:39.168Z,99.99
2018-11-06T00:29:39.156Z,99.99
2018-11-06T00:30:39.144Z,99.99
2018-11-06T00:31:39.137Z,99.99
2018-11-06T00:32:39.133Z,99.99
2018-11-06T00:33:39.116Z,99.99
2018-11-06T00:34:39.118Z,99.99
2018-11-06T00:35:39.109Z,99.99
2018-11-06T00:36:39.096Z,99.99
2018-11-06T00:37:39.088Z,99.99
2018-11-06T00:38:39.080Z,99.99
2018-11-06T00:39:39.091Z,99.99
2018-11-06T00:40:39.062Z,99.99
2018-11-06T00:41:39.066Z,99.99
2018-11-06T00:42:39.052Z,99.99
2018-11-06T00:43:39.042Z,99.99
2018-11-06T00:44:39.027Z,99.99
2018-11-06T00:45:39.020Z,99.99
2018-11-06T00:46:39.032Z,99.99
2018-11-06T00:47:39.011Z,99.99
2018-11-06T00:48:39.011Z,99.99
2018-11-06T00:49:39.000Z,99.99
2018-11-06T00:50:38.984Z,99.99
2018-11-06T00:51:38.979Z,99.99
2018-11-06T00:52:38.963Z,99.99
2018-11-06T00:53:38.952Z,99.99
2018-11-06T00:54:38.950Z,99.99
2018-11-06T00:55:38.940Z,99.93
2018-11-06T00:56:38.940Z,99.74
2018-11-06T00:59:00.430Z,99.22
2018-11-06T01:00:08.507Z,99.69
2018-11-06T01:02:15.353Z,99.12
2018-11-06T01:02:53.959Z,99.12
2018-11-06T01:04:51.947Z,99.41
2018-11-06T01:05:47.636Z,99.31
2018-11-06T01:08:12.529Z,99.31
2018-11-06T01:09:10.279Z,98.83
2018-11-06T01:10:10.279Z,98.74
2018-11-06T01:11:10.247Z,98.74
2018-11-06T01:12:10.237Z,98.55
2018-11-06T01:13:10.229Z,98.74
2018-11-06T01:14:10.230Z,97.98
2018-11-06T01:15:10.218Z,98.17
2018-11-06T01:16:10.220Z,97.79
2018-11-06T01:17:10.212Z,98.46
2018-11-06T01:18:10.192Z,98.55
2018-11-06T01:19:10.178Z,98.46
2018-11-06T01:20:10.173Z,97.88
2018-11-06T01:21:10.167Z,97.79
2018-11-06T01:22:10.168Z,98.08
2018-11-06T01:23:10.165Z,98.27
2018-11-06T01:24:10.143Z,98.27
2018-11-06T01:25:10.139Z,97.98
2018-11-06T01:26:10.123Z,97.88
2018-11-06T01:27:10.111Z,97.88
2018-11-06T01:28:10.114Z,98.08
2018-11-06T01:29:10.100Z,97.88
2018-11-06T01:30:10.114Z,97.98
2018-11-06T01:31:10.085Z,98.17
2018-11-06T01:32:10.085Z,98.36
2018-11-06T01:33:10.066Z,97.79
2018-11-06T01:34:10.056Z,97.79
2018-11-06T01:35:10.046Z,97.31
2018-11-06T01:36:10.042Z,97.13
2018-11-06T01:37:10.032Z,97.22
2018-11-06T01:38:10.028Z,97.22
2018-11-06T01:39:10.017Z,97.41
2018-11-06T01:40:10.011Z,97.31
2018-11-06T01:41:09.993Z,96.94
2018-11-06T01:42:09.992Z,97.31
2018-11-06T01:43:09.979Z,97.13
2018-11-06T01:44:09.970Z,96.74
2018-11-06T01:45:09.963Z,97.03
2018-11-06T01:46:09.965Z,96.84
2018-11-06T01:47:09.948Z,96.94
2018-11-06T01:48:09.939Z,97.31
2018-11-06T01:49:09.934Z,97.31
2018-11-06T01:50:09.929Z,96.84
2018-11-06T01:51:09.913Z,97.03
2018-11-06T01:52:09.907Z,96.74
2018-11-06T01:53:09.928Z,96.84
2018-11-06T01:54:09.890Z,97.22
2018-11-06T01:55:09.881Z,97.22
2018-11-06T01:56:09.876Z,97.13
2018-11-06T01:57:09.904Z,96.94
2018-11-06T01:58:09.860Z,97.31
2018-11-06T01:59:09.854Z,96.84
2018-11-06T02:00:09.852Z,97.79
2018-11-06T02:01:09.839Z,97.79
2018-11-06T02:02:09.828Z,98.17
2018-11-06T02:03:09.824Z,98.27
2018-11-06T02:04:09.813Z,98.08
2018-11-06T02:05:09.802Z,98.46
2018-11-06T02:06:09.803Z,98.55
2018-11-06T02:07:09.784Z,98.36
2018-11-06T02:08:09.778Z,98.55
2018-11-06T02:09:09.778Z,98.74
2018-11-06T02:10:09.770Z,98.65
2018-11-06T02:11:09.752Z,98.83
2018-11-06T02:12:09.745Z,98.46
2018-11-06T02:13:09.741Z,99.31
2018-11-06T02:14:09.728Z,99.22
2018-11-06T02:15:09.725Z,98.55
2018-11-06T02:16:09.743Z,99.31
2018-11-06T02:17:09.712Z,99.31
2018-11-06T02:18:09.693Z,99.16
2018-11-06T02:19:09.685Z,99.41
2018-11-06T02:20:09.679Z,99.60
2018-11-06T02:21:09.678Z,99.60
2018-11-06T02:22:09.661Z,99.64
2018-11-06T02:23:09.680Z,99.36
2018-11-06T02:24:09.655Z,99.99
2018-11-06T02:25:09.634Z,99.93
2018-11-06T02:26:09.629Z,99.99
2018-11-06T02:27:09.621Z,99.93
2018-11-06T02:28:09.615Z,99.16
2018-11-06T02:29:09.598Z,99.45
2018-11-06T02:30:09.614Z,99.55
2018-11-06T02:31:09.606Z,98.97
2018-11-06T02:32:09.589Z,98.97
2018-11-06T02:33:09.616Z,99.99
2018-11-06T02:34:09.561Z,99.99
2018-11-06T02:35:09.550Z,99.99
2018-11-06T02:36:09.546Z,99.99
2018-11-06T02:37:09.563Z,99.99
2018-11-06T02:38:09.528Z,99.99
2018-11-06T02:39:09.518Z,99.99
2018-11-06T02:40:09.520Z,99.99
2018-11-06T02:41:09.513Z,99.99
2018-11-06T02:42:09.495Z,99.99
2018-11-06T02:43:09.497Z,99.99
2018-11-06T02:44:09.482Z,99.99
2018-11-06T02:45:09.478Z,99.99
2018-11-06T02:46:09.458Z,99.99
2018-11-06T02:47:09.464Z,99.99
2018-11-06T02:48:09.443Z,99.99
2018-11-06T02:49:09.436Z,99.99
2018-11-06T02:50:09.455Z,99.99
2018-11-06T02:51:09.447Z,99.99
2018-11-06T02:52:09.412Z,99.99
2018-11-06T02:53:09.402Z,99.99
2018-11-06T02:54:09.393Z,99.99
2018-11-06T02:55:09.381Z,99.99
2018-11-06T02:56:09.389Z,99.99
2018-11-06T02:57:09.393Z,99.99
2018-11-06T02:58:09.391Z,99.99
2018-11-06T02:59:09.348Z,99.99
2018-11-06T03:00:09.349Z,99.99
2018-11-06T03:01:09.332Z,99.99
2018-11-06T03:02:09.330Z,99.99
2018-11-06T03:03:09.322Z,99.99
2018-11-06T03:04:09.311Z,99.99
2018-11-06T03:05:09.317Z,99.99
2018-11-06T03:06:09.298Z,99.99
2018-11-06T03:07:09.277Z,99.93
2018-11-06T03:08:09.278Z,99.99
2018-11-06T03:09:09.259Z,99.99
2018-11-06T03:10:09.298Z,99.99
2018-11-06T03:11:09.248Z,99.99
2018-11-06T03:12:09.237Z,99.99
2018-11-06T03:13:09.230Z,99.99
2018-11-06T03:14:09.222Z,99.99
2018-11-06T03:15:09.208Z,99.99
2018-11-06T03:16:09.202Z,99.99
2018-11-06T03:17:09.195Z,99.99
2018-11-06T03:18:09.186Z,99.99
2018-11-06T03:19:09.182Z,99.40
2018-11-06T03:20:09.165Z,99.50
2018-11-06T03:21:09.153Z,99.59
2018-11-06T03:22:09.148Z,99.40
2018-11-06T03:23:09.138Z,99.99
2018-11-06T03:24:09.130Z,99.97
2018-11-06T03:25:09.123Z,99.78
2018-11-06T03:26:09.119Z,99.78
2018-11-06T03:27:09.193Z,99.50
2018-11-06T03:28:09.092Z,99.40
2018-11-06T03:29:09.097Z,99.40
2018-11-06T03:30:09.079Z,99.40
2018-11-06T03:31:09.068Z,99.21
2018-11-06T03:32:09.062Z,99.11
2018-11-06T03:33:09.051Z,99.69
2018-11-06T03:34:09.058Z,99.21
2018-11-06T03:35:09.030Z,99.11
2018-11-06T03:36:09.027Z,99.88
2018-11-06T03:37:09.016Z,99.50
2018-11-06T03:38:09.005Z,99.30
2018-11-06T03:39:08.999Z,99.78
2018-11-06T03:40:08.990Z,99.59
2018-11-06T03:41:08.977Z,99.78
2018-11-06T03:42:08.973Z,99.88
2018-11-06T03:43:08.980Z,99.21
2018-11-06T03:44:09.505Z,99.30
2018-11-06T03:45:08.952Z,98.93
2018-11-06T03:46:08.934Z,99.50
2018-11-06T03:47:08.933Z,99.30
2018-11-06T03:48:08.935Z,99.50
2018-11-06T03:49:08.916Z,99.50
2018-11-06T03:50:08.923Z,99.69
2018-11-06T03:51:08.892Z,99.40
2018-11-06T03:52:08.893Z,99.40
2018-11-06T03:53:08.874Z,99.50
2018-11-06T03:54:08.862Z,99.40
2018-11-06T03:55:08.866Z,99.30
2018-11-06T03:56:08.863Z,99.11
2018-11-06T03:57:08.841Z,99.59
2018-11-06T03:58:08.836Z,99.30
2018-11-06T03:59:08.820Z,99.11
2018-11-06T04:00:08.821Z,99.11
2018-11-06T04:01:08.806Z,99.11
2018-11-06T04:02:08.810Z,99.21
2018-11-06T04:03:08.827Z,99.21
2018-11-06T04:04:08.782Z,99.21
2018-11-06T04:05:08.768Z,98.64
2018-11-06T04:06:08.763Z,98.83
2018-11-06T04:07:08.746Z,98.74
2018-11-06T04:08:08.761Z,98.45
2018-11-06T04:09:08.751Z,98.36
2018-11-06T04:10:08.722Z,97.88
2018-11-06T04:11:08.720Z,97.88
2018-11-06T04:12:08.703Z,97.69
2018-11-06T04:13:08.699Z,97.97
2018-11-06T04:14:08.684Z,97.69
2018-11-06T04:15:08.694Z,97.88
2018-11-06T04:16:08.700Z,96.98
2018-11-06T04:17:08.661Z,97.41
2018-11-06T04:18:08.652Z,97.41
2018-11-06T04:19:08.650Z,97.31
2018-11-06T04:20:08.631Z,97.97
2018-11-06T04:21:09.516Z,98.26
2018-11-06T04:22:08.623Z,98.17
2018-11-06T04:23:08.606Z,97.92
2018-11-06T04:24:08.603Z,97.60
2018-11-06T04:25:08.592Z,97.27
2018-11-06T04:26:08.588Z,97.36
2018-11-06T04:27:08.571Z,97.78
2018-11-06T04:28:08.574Z,97.74
2018-11-06T04:29:08.558Z,97.64
2018-11-06T04:30:08.547Z,97.55
2018-11-06T04:31:08.556Z,97.55
2018-11-06T04:32:08.531Z,97.74
2018-11-06T04:33:08.522Z,96.98
2018-11-06T04:34:09.030Z,97.07
2018-11-06T04:35:08.509Z,97.27
2018-11-06T04:36:08.492Z,97.36
2018-11-06T04:37:08.491Z,97.64
2018-11-06T04:38:08.480Z,97.36
2018-11-06T04:39:08.476Z,97.64
2018-11-06T04:40:08.455Z,97.36
2018-11-06T04:41:08.447Z,97.36
2018-11-06T04:42:08.459Z,97.36
2018-11-06T04:43:08.427Z,97.74
2018-11-06T04:44:08.419Z,97.36
2018-11-06T04:45:08.422Z,97.64
2018-11-06T04:46:08.401Z,97.36
2018-11-06T04:47:08.391Z,97.36
2018-11-06T04:48:08.392Z,97.92
2018-11-06T04:49:08.367Z,97.74
2018-11-06T04:50:08.371Z,97.92
2018-11-06T04:51:08.356Z,98.02
2018-11-06T04:52:08.342Z,97.92
2018-11-06T04:53:08.333Z,97.92
2018-11-06T04:54:08.329Z,98.02
2018-11-06T04:55:08.335Z,97.64
2018-11-06T04:56:08.309Z,97.64
2018-11-06T04:57:08.299Z,97.55
2018-11-06T04:58:08.292Z,97.36
2018-11-06T04:59:08.279Z,97.55
2018-11-06T05:00:08.277Z,97.36
2018-11-06T05:01:08.281Z,97.55
2018-11-06T05:02:08.355Z,97.36
2018-11-06T05:03:08.300Z,97.07
2018-11-06T05:04:08.231Z,97.36
2018-11-06T05:05:08.265Z,97.36
2018-11-06T05:06:08.239Z,96.88
2018-11-06T05:07:08.229Z,97.17
2018-11-06T05:08:08.204Z,97.27
2018-11-06T05:09:08.187Z,96.98
2018-11-06T05:10:08.178Z,97.36
2018-11-06T05:11:08.179Z,97.27
2018-11-06T05:12:08.157Z,97.27
2018-11-06T05:13:08.157Z,97.17
2018-11-06T05:14:08.227Z,97.17
2018-11-06T05:15:08.135Z,96.88
2018-11-06T05:16:08.129Z,97.17
2018-11-06T05:17:08.129Z,97.07
2018-11-06T05:18:08.101Z,96.69
2018-11-06T05:19:08.102Z,96.41
2018-11-06T05:20:15.981Z,96.60
2018-11-06T05:23:50.318Z,96.03
2018-11-06T05:24:34.049Z,96.79
2018-11-06T05:25:34.091Z,96.60
2018-11-06T05:26:34.029Z,96.79
2018-11-06T05:27:34.153Z,96.22
2018-11-06T05:31:27.936Z,96.41
2018-11-06T05:32:27.903Z,95.94
2018-11-06T05:33:27.894Z,96.50
2018-11-06T05:34:27.898Z,96.41
2018-11-06T05:35:27.876Z,96.22
2018-11-06T05:36:27.889Z,96.22
2018-11-06T05:37:27.856Z,96.60
2018-11-06T05:38:27.845Z,96.41
2018-11-06T05:39:27.882Z,97.07
2018-11-06T05:40:27.837Z,96.88
2018-11-06T05:41:27.815Z,97.07
2018-11-06T05:42:27.808Z,96.41
2018-11-06T05:43:27.824Z,97.17
2018-11-06T05:44:27.793Z,96.88
2018-11-06T05:45:27.821Z,97.07
2018-11-06T05:46:27.773Z,96.83
2018-11-06T05:47:27.759Z,97.36
2018-11-06T05:48:27.750Z,97.27
2018-11-06T05:49:27.751Z,97.27
2018-11-06T05:50:27.767Z,96.83
2018-11-06T05:51:27.730Z,95.75
2018-11-06T05:52:27.718Z,95.17
2018-11-06T05:53:27.722Z,94.60
2018-11-06T05:54:27.694Z,94.32
2018-11-06T05:55:27.691Z,94.13
2018-11-06T05:56:27.690Z,93.27
2018-11-06T05:57:27.669Z,92.90
2018-11-06T05:58:27.712Z,92.51
2018-11-06T05:59:27.657Z,91.56
2018-11-06T06:00:27.699Z,91.66
2018-11-06T06:01:27.636Z,91.85
2018-11-06T06:02:27.634Z,92.23
2018-11-06T06:03:27.615Z,91.94
2018-11-06T06:04:27.607Z,91.85
2018-11-06T06:05:27.600Z,92.23
2018-11-06T06:06:27.587Z,91.66
2018-11-06T06:07:27.584Z,91.47
2018-11-06T06:08:27.584Z,91.75
2018-11-06T06:09:27.564Z,92.04
2018-11-06T06:10:27.556Z,91.94
2018-11-06T06:11:27.546Z,91.94
2018-11-06T06:12:27.561Z,91.66
2018-11-06T06:13:27.532Z,91.94
2018-11-06T06:14:27.512Z,91.28
2018-11-06T06:15:27.522Z,92.42
2018-11-06T06:16:27.496Z,91.47
2018-11-06T06:17:27.484Z,92.23
2018-11-06T06:18:27.482Z,91.75
2018-11-06T06:19:27.472Z,91.66
2018-11-06T06:20:27.465Z,91.85
2018-11-06T06:21:27.456Z,91.75
2018-11-06T06:22:27.475Z,91.94
2018-11-06T06:23:27.429Z,91.94
2018-11-06T06:24:27.422Z,92.04
2018-11-06T06:25:27.425Z,92.80
2018-11-06T06:26:27.404Z,92.71
2018-11-06T06:27:27.430Z,92.42
2018-11-06T06:28:27.525Z,92.99
2018-11-06T06:29:27.380Z,92.04
2018-11-06T06:30:27.369Z,92.04
2018-11-06T06:31:27.361Z,92.23
2018-11-06T06:32:27.350Z,92.23
2018-11-06T06:33:27.360Z,92.13
2018-11-06T06:34:27.351Z,92.23
2018-11-06T06:35:27.354Z,91.85
2018-11-06T06:36:27.321Z,92.61
2018-11-06T06:37:27.302Z,92.04
2018-11-06T06:38:27.302Z,91.47
2018-11-06T06:39:27.284Z,92.13
2018-11-06T06:40:27.292Z,91.75
2018-11-06T06:41:27.299Z,91.85
2018-11-06T06:42:27.258Z,91.94
2018-11-06T06:43:27.254Z,91.85
2018-11-06T06:44:27.248Z,91.75
2018-11-06T06:45:27.232Z,91.66
2018-11-06T06:46:27.292Z,91.85
2018-11-06T06:47:27.241Z,91.85
2018-11-06T06:48:27.218Z,91.85
2018-11-06T06:49:27.197Z,91.66
2018-11-06T06:50:27.186Z,91.47
2018-11-06T06:51:27.174Z,91.09
2018-11-06T06:52:27.175Z,90.71
2018-11-06T06:53:27.168Z,90.61
2018-11-06T06:54:27.421Z,90.33
2018-11-06T06:55:27.163Z,90.05
2018-11-06T06:56:27.130Z,89.76
2018-11-06T06:57:27.133Z,89.38
2018-11-06T06:58:27.110Z,89.28
2018-11-06T06:59:27.125Z,89.38
2018-11-06T07:00:27.096Z,88.43
2018-11-06T07:01:27.101Z,88.34
2018-11-06T07:02:27.099Z,88.05
2018-11-06T07:03:27.069Z,88.34
2018-11-06T07:04:27.062Z,88.05
2018-11-06T07:05:27.049Z,88.15
2018-11-06T07:06:27.059Z,88.15
2018-11-06T07:07:27.041Z,87.95
2018-11-06T07:08:27.028Z,88.15
2018-11-06T07:09:27.030Z,87.86
2018-11-06T07:10:27.001Z,88.15
2018-11-06T07:11:26.998Z,88.15
2018-11-06T07:12:26.985Z,88.34
2018-11-06T07:13:26.983Z,88.34
2018-11-06T07:14:26.967Z,88.81
2018-11-06T07:15:26.967Z,88.71
2018-11-06T07:16:26.951Z,88.90
2018-11-06T07:17:26.953Z,88.53
2018-11-06T07:18:26.945Z,88.71
2018-11-06T07:19:26.933Z,88.81
2018-11-06T07:20:26.943Z,88.71
2018-11-06T07:21:26.904Z,88.24
2018-11-06T07:22:26.895Z,88.62
2018-11-06T07:23:26.884Z,88.24
2018-11-06T07:24:26.876Z,88.90
2018-11-06T07:25:26.884Z,88.71
2018-11-06T07:26:26.876Z,88.90
2018-11-06T07:27:26.861Z,89.57
2018-11-06T07:28:26.848Z,89.09
2018-11-06T07:29:26.850Z,89.38
2018-11-06T07:30:26.835Z,88.24
2018-11-06T07:31:26.832Z,88.43
2018-11-06T07:32:26.820Z,89.09
2018-11-06T07:33:26.807Z,89.33
2018-11-06T07:34:26.835Z,89.38
2018-11-06T07:35:26.967Z,89.38
2018-11-06T07:36:26.774Z,88.81
2018-11-06T07:37:26.758Z,88.81
2018-11-06T07:38:26.754Z,89.09
2018-11-06T07:39:26.757Z,88.62
2018-11-06T07:40:26.804Z,88.76
2018-11-06T07:41:26.728Z,88.76
2018-11-06T07:42:26.719Z,88.47
2018-11-06T07:43:26.711Z,88.67
2018-11-06T07:44:26.703Z,88.85
2018-11-06T07:45:26.689Z,88.09
2018-11-06T07:46:26.692Z,88.28
2018-11-06T07:47:26.674Z,88.28
2018-11-06T07:48:26.665Z,87.90
2018-11-06T07:49:26.653Z,88.19
2018-11-06T07:50:26.670Z,87.71
2018-11-06T07:51:26.647Z,88.00
2018-11-06T07:52:26.629Z,88.09
2018-11-06T07:53:26.626Z,87.34
2018-11-06T07:54:26.609Z,87.62
2018-11-06T07:55:26.629Z,87.52
2018-11-06T07:56:26.595Z,87.52
2018-11-06T07:57:26.591Z,87.52
2018-11-06T07:58:26.611Z,87.81
2018-11-06T07:59:26.576Z,87.43
2018-11-06T08:00:26.562Z,88.00
2018-11-06T08:01:27.324Z,87.43
2018-11-06T08:02:26.540Z,88.38
2018-11-06T08:03:26.542Z,88.57
2018-11-06T08:04:26.624Z,88.76
2018-11-06T08:05:26.533Z,89.33
2018-11-06T08:06:26.614Z,89.14
2018-11-06T08:07:26.502Z,89.71
2018-11-06T08:08:26.511Z,90.00
2018-11-06T08:09:26.518Z,89.52
2018-11-06T08:10:26.477Z,90.00
2018-11-06T08:11:26.484Z,90.37
2018-11-06T08:12:26.466Z,91.23
2018-11-06T08:13:26.453Z,91.80
2018-11-06T08:14:26.452Z,94.37
2018-11-06T08:15:26.434Z,95.32
2018-11-06T08:16:26.422Z,95.36
2018-11-06T08:17:26.416Z,96.17
2018-11-06T08:18:26.407Z,96.74
2018-11-06T08:19:26.397Z,97.12
2018-11-06T08:20:26.438Z,97.93
2018-11-06T08:21:26.386Z,98.31
2018-11-06T08:22:26.374Z,98.79
2018-11-06T08:23:26.368Z,98.60
2018-11-06T08:24:26.373Z,99.99
2018-11-06T08:25:26.370Z,99.99
2018-11-06T08:26:26.385Z,99.99
2018-11-06T08:27:26.366Z,99.99
2018-11-06T08:28:26.346Z,99.99
2018-11-06T08:29:26.316Z,99.99
2018-11-06T08:30:26.378Z,99.99
2018-11-06T08:31:26.675Z,99.99
2018-11-06T08:32:26.651Z,99.99
2018-11-06T08:33:26.294Z,99.99
2018-11-06T08:34:26.280Z,99.99
2018-11-06T08:35:26.275Z,99.99
2018-11-06T08:36:26.298Z,99.99
2018-11-06T08:37:26.262Z,99.99
2018-11-06T08:38:26.256Z,99.99
2018-11-06T08:39:26.271Z,99.99
2018-11-06T08:40:26.262Z,99.99
2018-11-06T08:41:26.227Z,99.99
2018-11-06T08:42:26.262Z,99.99
2018-11-06T08:43:26.216Z,99.99
2018-11-06T08:44:26.203Z,99.99
2018-11-06T08:45:26.195Z,99.99
2018-11-06T08:46:26.186Z,99.99
2018-11-06T08:47:26.216Z,99.99
2018-11-06T08:48:26.177Z,99.99
2018-11-06T08:49:26.170Z,99.99
2018-11-06T08:50:26.186Z,99.99
2018-11-06T08:51:26.161Z,99.99
2018-11-06T08:52:26.157Z,99.99
2018-11-06T08:53:26.162Z,99.99
2018-11-06T08:54:26.261Z,99.99
2018-11-06T08:55:26.158Z,99.99
2018-11-06T08:56:26.123Z,99.99
2018-11-06T08:57:26.116Z,99.99
2018-11-06T08:58:26.106Z,99.99
2018-11-06T08:59:26.102Z,99.99
2018-11-06T09:00:26.109Z,99.99
2018-11-06T09:01:26.097Z,99.99
2018-11-06T09:02:26.142Z,99.99
2018-11-06T09:03:26.096Z,99.99
2018-11-06T09:04:26.088Z,99.99
2018-11-06T09:05:26.077Z,99.99
2018-11-06T09:06:26.072Z,99.99
2018-11-06T09:07:26.066Z,99.99
2018-11-06T09:08:26.058Z,99.99
2018-11-06T09:09:26.072Z,99.99
2018-11-06T09:10:26.057Z,99.99
2018-11-06T09:11:26.066Z,99.99
2018-11-06T09:12:26.050Z,99.99
2018-11-06T09:13:26.052Z,99.99
2018-11-06T09:14:26.056Z,99.99
2018-11-06T09:15:26.050Z,99.99
2018-11-06T09:16:26.041Z,99.99
2018-11-06T09:17:26.041Z,99.99
2018-11-06T09:18:26.034Z,99.99
2018-11-06T09:19:26.038Z,99.99
2018-11-06T09:20:26.041Z,99.99
2018-11-06T09:21:26.030Z,99.99
2018-11-06T09:22:26.059Z,99.99
2018-11-06T09:23:26.034Z,99.99
2018-11-06T09:24:26.030Z,99.99
2018-11-06T09:25:26.040Z,99.99
2018-11-06T09:26:26.026Z,99.99
2018-11-06T09:27:26.026Z,99.99
2018-11-06T09:28:26.022Z,99.99
2018-11-06T09:29:26.024Z,99.99
2018-11-06T09:30:26.030Z,99.99
2018-11-06T09:31:26.031Z,99.99
2018-11-06T09:32:26.024Z,99.99
2018-11-06T09:33:26.026Z,99.99
2018-11-06T09:34:26.025Z,99.99
2018-11-06T09:35:26.025Z,99.99
2018-11-06T09:36:26.033Z,99.99
2018-11-06T09:37:26.041Z,99.99
2018-11-06T09:38:26.046Z,99.99
2018-11-06T09:39:26.046Z,99.99
2018-11-06T09:40:26.026Z,99.99
2018-11-06T09:41:26.071Z,99.99
2018-11-06T09:42:26.027Z,99.99
2018-11-06T09:43:26.029Z,99.99
2018-11-06T09:44:26.031Z,99.99
2018-11-06T09:45:26.046Z,99.99
2018-11-06T09:46:26.024Z,99.99
2018-11-06T09:47:26.027Z,99.99
2018-11-06T09:48:26.023Z,99.99
2018-11-06T09:49:26.033Z,99.99
2018-11-06T09:50:26.025Z,99.99
2018-11-06T09:51:26.053Z,99.99
2018-11-06T09:52:26.024Z,99.99
2018-11-06T09:53:26.026Z,99.99
2018-11-06T09:54:26.041Z,99.99
2018-11-06T09:55:26.046Z,99.99
2018-11-06T09:56:26.030Z,99.99
2018-11-06T09:57:26.022Z,99.99
2018-11-06T09:58:26.020Z,99.99
2018-11-06T09:59:26.025Z,99.99
2018-11-06T10:00:26.026Z,99.99
2018-11-06T10:01:26.021Z,99.99
2018-11-06T10:02:26.020Z,99.99
2018-11-06T10:03:26.022Z,99.99
2018-11-06T10:04:26.018Z,99.99
2018-11-06T10:05:26.045Z,99.99
2018-11-06T10:06:26.065Z,99.99
2018-11-06T10:07:26.210Z,99.99
2018-11-06T10:08:26.071Z,99.99
2018-11-06T10:09:26.025Z,99.99
2018-11-06T10:10:26.075Z,99.99
2018-11-06T10:11:26.109Z,99.99
2018-11-06T10:12:26.025Z,99.99
2018-11-06T10:13:26.018Z,99.99
2018-11-06T10:14:26.022Z,99.99
2018-11-06T10:15:26.066Z,99.99
2018-11-06T10:16:26.017Z,99.99
2018-11-06T10:17:26.016Z,99.99
2018-11-06T10:18:26.021Z,99.99
2018-11-06T10:19:26.023Z,99.99
2018-11-06T10:20:26.019Z,99.99
2018-11-06T10:21:26.067Z,99.99
2018-11-06T10:22:26.020Z,99.99
2018-11-06T10:23:26.020Z,99.99
2018-11-06T10:24:26.025Z,98.57
2018-11-06T10:25:26.043Z,95.51
2018-11-06T10:26:26.050Z,95.56
2018-11-06T10:27:26.023Z,95.75
2018-11-06T10:28:26.021Z,96.80
2018-11-06T10:29:26.019Z,96.99
2018-11-06T10:30:26.017Z,97.56
2018-11-06T10:31:26.016Z,98.05
2018-11-06T10:32:26.018Z,98.09
2018-11-06T10:33:26.022Z,99.33
2018-11-06T10:34:26.042Z,98.19
2018-11-06T10:35:26.038Z,98.09
2018-11-06T10:36:26.013Z,98.57
2018-11-06T10:37:26.025Z,99.29
2018-11-06T10:38:26.016Z,99.29
2018-11-06T10:39:26.015Z,99.99
2018-11-06T10:40:26.050Z,99.99
2018-11-06T10:41:26.010Z,99.99
2018-11-06T10:42:26.038Z,99.99
2018-11-06T10:43:26.016Z,99.99
2018-11-06T10:44:26.005Z,99.99
2018-11-06T10:45:26.008Z,99.99
2018-11-06T10:46:26.002Z,99.99
2018-11-06T10:47:26.009Z,99.99
2018-11-06T10:48:25.996Z,99.99
2018-11-06T10:49:26.008Z,99.99
2018-11-06T10:50:26.010Z,99.99
2018-11-06T10:51:25.994Z,99.99
2018-11-06T10:52:25.993Z,99.99
2018-11-06T10:53:25.989Z,99.99
2018-11-06T10:54:25.993Z,99.99
2018-11-06T10:55:25.999Z,99.99
2018-11-06T10:56:25.987Z,99.99
2018-11-06T10:57:25.987Z,99.99
2018-11-06T10:58:25.983Z,99.99
2018-11-06T10:59:25.982Z,99.99
2018-11-06T11:00:26.012Z,99.99
2018-11-06T11:01:25.967Z,99.99
2018-11-06T11:02:25.968Z,99.99
2018-11-06T11:03:25.966Z,99.99
2018-11-06T11:04:25.964Z,99.99
2018-11-06T11:05:25.963Z,99.99
2018-11-06T11:06:25.976Z,99.99
2018-11-06T11:07:25.956Z,99.99
2018-11-06T11:08:25.958Z,99.99
2018-11-06T11:09:25.971Z,99.99
2018-11-06T11:10:25.946Z,99.99
2018-11-06T11:11:25.952Z,99.99
2018-11-06T11:12:25.969Z,99.99
2018-11-06T11:13:26.012Z,99.91
2018-11-06T11:14:25.997Z,99.34
2018-11-06T11:15:25.961Z,97.90
2018-11-06T11:16:25.942Z,98.19
2018-11-06T11:17:25.967Z,99.53
2018-11-06T11:18:25.945Z,99.24
2018-11-06T11:19:25.939Z,99.72
2018-11-06T11:20:25.937Z,99.05
2018-11-06T11:21:25.936Z,99.24
2018-11-06T11:22:25.957Z,99.99
2018-11-06T11:23:25.932Z,98.57
2018-11-06T11:24:25.934Z,97.23
2018-11-06T11:25:26.030Z,98.57
2018-11-06T11:26:25.945Z,98.38
2018-11-06T11:27:25.951Z,97.23
2018-11-06T11:28:25.928Z,97.23
2018-11-06T11:29:25.945Z,97.09
2018-11-06T11:30:25.932Z,96.32
2018-11-06T11:31:25.990Z,96.99
2018-11-06T11:32:25.933Z,95.65
2018-11-06T11:33:25.936Z,97.28
2018-11-06T11:34:25.950Z,97.18
2018-11-06T11:35:25.928Z,96.99
2018-11-06T11:36:25.962Z,95.65
2018-11-06T11:37:25.921Z,94.12
2018-11-06T11:38:25.933Z,93.63
2018-11-06T11:39:25.933Z,94.59
2018-11-06T11:40:25.936Z,95.46
2018-11-06T11:41:25.947Z,95.56
2018-11-06T11:42:25.924Z,94.79
2018-11-06T11:43:25.922Z,95.36
2018-11-06T11:44:25.931Z,95.36
2018-11-06T11:45:25.921Z,95.46
2018-11-06T11:46:25.925Z,95.36
2018-11-06T11:47:25.928Z,95.07
2018-11-06T11:48:25.927Z,94.79
2018-11-06T11:49:25.926Z,94.89
2018-11-06T11:50:25.927Z,94.59
2018-11-06T11:51:25.917Z,93.63
2018-11-06T11:52:25.948Z,94.59
2018-11-06T11:53:25.919Z,95.36
2018-11-06T11:54:25.918Z,95.07
2018-11-06T11:55:25.922Z,95.65
2018-11-06T11:56:25.938Z,94.40
2018-11-06T11:57:25.915Z,95.17
2018-11-06T11:58:25.917Z,95.89
2018-11-06T11:59:25.910Z,96.08
2018-11-06T12:00:25.912Z,96.08
2018-11-06T12:01:25.908Z,96.84
2018-11-06T12:02:25.926Z,96.84
2018-11-06T12:03:25.927Z,98.00
2018-11-06T12:04:25.908Z,97.61
2018-11-06T12:05:25.900Z,97.42
2018-11-06T12:06:25.905Z,97.33
2018-11-06T12:07:25.927Z,97.23
2018-11-06T12:08:25.902Z,97.42
2018-11-06T12:09:25.907Z,98.00
2018-11-06T12:10:25.890Z,97.42
2018-11-06T12:11:25.892Z,97.80
2018-11-06T12:12:25.886Z,97.23
2018-11-06T12:13:25.891Z,98.00
2018-11-06T12:14:25.892Z,97.90
2018-11-06T12:15:25.911Z,98.38
2018-11-06T12:16:25.879Z,99.05
2018-11-06T12:17:25.945Z,99.34
2018-11-06T12:18:25.911Z,99.82
2018-11-06T12:19:25.891Z,99.43
2018-11-06T12:20:25.867Z,99.05
2018-11-06T12:21:25.863Z,99.53
2018-11-06T12:22:25.865Z,99.99
2018-11-06T12:23:25.872Z,98.96
2018-11-06T12:24:25.929Z,99.43
2018-11-06T12:25:26.171Z,98.96
2018-11-06T12:26:25.852Z,99.05
2018-11-06T12:27:25.851Z,98.67
2018-11-06T12:28:25.857Z,97.80
2018-11-06T12:29:25.870Z,99.91
2018-11-06T12:30:25.872Z,99.63
2018-11-06T12:31:25.839Z,99.24
2018-11-06T12:32:25.888Z,98.47
2018-11-06T12:33:25.843Z,98.57
2018-11-06T12:34:25.825Z,96.94
2018-11-06T12:35:25.828Z,97.61
2018-11-06T12:36:25.874Z,97.80
2018-11-06T12:37:25.813Z,98.38
2018-11-06T12:38:25.816Z,97.52
2018-11-06T12:39:25.812Z,98.00
2018-11-06T12:40:25.811Z,96.56
2018-11-06T12:41:25.810Z,97.71
2018-11-06T12:42:25.798Z,98.00
2018-11-06T12:43:25.852Z,97.04
2018-11-06T12:44:25.795Z,96.08
2018-11-06T12:45:25.812Z,96.99
2018-11-06T12:46:25.810Z,95.89
2018-11-06T12:47:25.781Z,96.56
2018-11-06T12:48:25.778Z,95.60
2018-11-06T12:49:25.787Z,95.89
2018-11-06T12:50:25.854Z,94.74
2018-11-06T12:51:25.781Z,95.56
2018-11-06T12:52:25.767Z,95.94
2018-11-06T12:53:25.766Z,94.84
2018-11-06T12:54:25.761Z,95.26
2018-11-06T12:55:25.760Z,95.75
2018-11-06T12:56:25.769Z,96.99
2018-11-06T12:57:25.752Z,95.94
2018-11-06T12:58:25.750Z,96.22
2018-11-06T12:59:25.743Z,96.13
2018-11-06T13:00:25.744Z,98.43
2018-11-06T13:01:25.770Z,95.56
2018-11-06T13:02:25.735Z,94.89